Lincolnshire Woods, Illinois
Current Conditions -  °F | °C
As of 3:52 AM on Saturday 25 Oct 2014 (Local Time) from KPWK Reporting Station
Overcast Overcast  
Wind Chill: 59°   Ceiling: 1200
Heat Index: 59°   Visibility: 10mi
Dew Point: 53°   Wind: 7mph
Humidity: 81%   Direction: 280°W
Pressure: 29.91"   Gusts: NA
Location:  42.2369°N, 87.8684°W
Report Text: KPWK 250852Z AUTO 28006KT 10SM OVC012 15/12 A2991 RMK AO2 SLP126 T01500117 55003
Loading
Personal Weather Stations






























Interactive Weather Map
Tropical Storm Tracking
New forecast layout! Learn more

10-Day Weather Forecast

Advertisements
Track Severe Weather on mobile